»·PEaware :: N101WS KSBA-KCMA

N101WS :: KSBA-KCMA

FLIGHT INFORMATION

Flight Status: Arrived
Operator: Privately registered:
United States
More flights under this callsign
Pilot: Mark K. (33451)
Aircraft: CESSNA 172 SKYHAWK
(C172)
More flights by this aircraft type
Origin: KSBA Santa Barbara Mun
United States
Destination: KCMA Camarillo
United States
More flights between these airports :: More routes between these airports
Route: KWANG CMA
File this flight plan on PilotEdge
Remarks:
Altitude:
(Current/Filed)
3,000ft
Speed:
(Current/Filed)
105kts
Departed: 20-Feb-21 10:36 PM
Arrived: 20-Feb-21 11:27 PM
Distance/Time
Traveled:
39nm/0:50
Distance/Time
To Go:
Arrived

Flight Plot

Page will automatically refresh every two minutes.


Map Options




Map Legend


Flown Route
Filed Route
Departure Airport
Arrival Airport
Navaid (VOR, NDB)
Fix

Horizontal Profiles

Position Reports

Time Latitude Longitude Heading Altitude Ground
Speed
20-Feb-21 22:25 34.431330 -119.838585 73 14ft 0kts
20-Feb-21 22:26 34.431330 -119.838585 73 14ft 0kts
20-Feb-21 22:27 34.431330 -119.838585 73 14ft 0kts
20-Feb-21 22:29 34.431330 -119.838585 73 14ft 0kts
20-Feb-21 22:29 34.431330 -119.838585 73 14ft 0kts
20-Feb-21 22:30 34.431805 -119.836476 72 14ft 20kts
20-Feb-21 22:31 34.431222 -119.835340 175 13ft 16kts
20-Feb-21 22:32 34.428832 -119.834683 161 10ft 0kts
20-Feb-21 22:33 34.428832 -119.834683 161 10ft 0kts
20-Feb-21 22:34 34.427848 -119.835130 261 10ft 11kts
20-Feb-21 22:35 34.427486 -119.855977 265 615ft 83kts
20-Feb-21 22:36 34.427141 -119.886164 267 1311ft 92kts
20-Feb-21 22:37 34.427195 -119.917000 267 1994ft 91kts
20-Feb-21 22:38 34.427281 -119.947477 267 2631ft 93kts
20-Feb-21 22:39 34.418246 -119.975941 190 2741ft 108kts
20-Feb-21 22:40 34.401801 -119.949785 100 2732ft 108kts
20-Feb-21 22:41 34.394844 -119.914138 101 2729ft 108kts
20-Feb-21 22:42 34.387458 -119.878953 102 2808ft 104kts
20-Feb-21 22:43 34.380180 -119.845018 102 2977ft 108kts
20-Feb-21 22:44 34.372515 -119.809633 102 2976ft 108kts
20-Feb-21 22:45 34.364825 -119.774236 102 2976ft 108kts
20-Feb-21 22:46 34.357120 -119.738830 102 2976ft 108kts
20-Feb-21 22:47 34.349428 -119.703546 102 2976ft 108kts
20-Feb-21 22:48 34.341420 -119.667134 103 2968ft 118kts
20-Feb-21 22:49 34.332349 -119.627885 103 2977ft 122kts
20-Feb-21 22:50 34.323583 -119.588214 103 2977ft 122kts
20-Feb-21 22:51 34.314829 -119.548328 103 2976ft 122kts
20-Feb-21 22:52 34.306097 -119.508597 103 2976ft 122kts
20-Feb-21 22:53 34.297352 -119.468874 103 2976ft 122kts
20-Feb-21 22:54 34.288600 -119.429187 103 2976ft 122kts
20-Feb-21 22:55 34.279828 -119.389476 103 2976ft 122kts
20-Feb-21 22:56 34.271045 -119.349778 103 2976ft 122kts
20-Feb-21 22:57 34.262267 -119.310155 103 2996ft 121kts
20-Feb-21 22:58 34.252377 -119.271869 107 3215ft 113kts
20-Feb-21 22:59 34.242152 -119.236356 107 3700ft 111kts
20-Feb-21 23:00 34.231870 -119.201013 107 4187ft 111kts
20-Feb-21 23:01 34.221541 -119.165572 107 4674ft 112kts
20-Feb-21 23:02 34.211008 -119.129468 107 4983ft 120kts
20-Feb-21 23:03 34.199580 -119.090517 107 4981ft 123kts
20-Feb-21 23:04 34.188163 -119.051486 107 4981ft 123kts
20-Feb-21 23:05 34.176745 -119.012488 107 4981ft 123kts
20-Feb-21 23:06 34.165312 -118.973493 107 4981ft 123kts
20-Feb-21 23:07 34.153894 -118.934599 107 4981ft 123kts
20-Feb-21 23:08 34.142721 -118.896784 108 4979ft 113kts
20-Feb-21 23:09 34.132860 -118.863699 108 4977ft 93kts
20-Feb-21 23:10 34.123895 -118.833130 108 4984ft 102kts
20-Feb-21 23:11 34.115358 -118.800878 79 4978ft 94kts
20-Feb-21 23:12 34.138116 -118.794194 354 4753ft 102kts
20-Feb-21 23:13 34.165411 -118.797043 354 4242ft 94kts
20-Feb-21 23:14 34.190557 -118.799840 352 4007ft 93kts
20-Feb-21 23:15 34.217272 -118.802794 353 3998ft 92kts
20-Feb-21 23:16 34.228045 -118.827538 270 3565ft 93kts
20-Feb-21 23:17 34.226975 -118.859003 264 3317ft 96kts
20-Feb-21 23:18 34.224998 -118.891368 257 2921ft 95kts
20-Feb-21 23:19 34.218603 -118.918514 285 2309ft 95kts
20-Feb-21 23:20 34.220741 -118.948622 266 2135ft 91kts
20-Feb-21 23:21 34.219414 -118.977775 265 1982ft 85kts
20-Feb-21 23:22 34.217948 -119.004451 265 1531ft 88kts
20-Feb-21 23:23 34.216186 -119.033459 264 1034ft 87kts
20-Feb-21 23:24 34.214306 -119.062972 264 524ft 86kts
20-Feb-21 23:25 34.213664 -119.086403 271 74ft 47kts
20-Feb-21 23:26 34.210874 -119.089475 184 69ft 15kts
20-Feb-21 23:27 34.210537 -119.089971 270 69ft 0kts

Navigation Log

Ident Type
Flight plan parsing failed, navigation log unavailable